sensor_id;sensor_type;location;lat;lon;timestamp;P1;durP1;ratioP1;P2;durP2;ratioP2
17741;SDS011;8993;51.822;-2.268;2022-08-03T00:04:47;14.86;;;3.74;;
17741;SDS011;8993;51.822;-2.268;2022-08-03T00:09:52;19.32;;;4.00;;
17741;SDS011;8993;51.822;-2.268;2022-08-03T00:14:56;17.73;;;3.24;;
17741;SDS011;8993;51.822;-2.268;2022-08-03T00:20:02;15.21;;;3.06;;
17741;SDS011;8993;51.822;-2.268;2022-08-03T00:25:07;12.47;;;2.87;;
17741;SDS011;8993;51.822;-2.268;2022-08-03T00:30:11;13.58;;;2.74;;
17741;SDS011;8993;51.822;-2.268;2022-08-03T00:35:15;14.66;;;2.97;;
17741;SDS011;8993;51.822;-2.268;2022-08-03T00:45:26;17.55;;;4.18;;
17741;SDS011;8993;51.822;-2.268;2022-08-03T00:50:32;17.51;;;4.46;;
17741;SDS011;8993;51.822;-2.268;2022-08-03T00:55:35;16.04;;;3.50;;
17741;SDS011;8993;51.822;-2.268;2022-08-03T01:00:40;14.52;;;2.72;;
17741;SDS011;8993;51.822;-2.268;2022-08-03T01:05:48;10.72;;;2.45;;
17741;SDS011;8993;51.822;-2.268;2022-08-03T01:10:50;8.45;;;2.06;;
17741;SDS011;8993;51.822;-2.268;2022-08-03T01:15:55;12.23;;;2.70;;
17741;SDS011;8993;51.822;-2.268;2022-08-03T01:20:57;14.06;;;3.69;;
17741;SDS011;8993;51.822;-2.268;2022-08-03T01:26:04;15.92;;;3.90;;
17741;SDS011;8993;51.822;-2.268;2022-08-03T01:31:06;13.53;;;3.45;;
17741;SDS011;8993;51.822;-2.268;2022-08-03T01:36:10;15.57;;;3.69;;
17741;SDS011;8993;51.822;-2.268;2022-08-03T01:41:16;10.01;;;2.40;;
17741;SDS011;8993;51.822;-2.268;2022-08-03T01:46:20;11.11;;;2.52;;
17741;SDS011;8993;51.822;-2.268;2022-08-03T01:51:24;28.69;;;13.01;;
17741;SDS011;8993;51.822;-2.268;2022-08-03T01:56:30;12.32;;;2.96;;
17741;SDS011;8993;51.822;-2.268;2022-08-03T02:06:39;10.97;;;2.88;;
17741;SDS011;8993;51.822;-2.268;2022-08-03T02:11:43;8.96;;;1.95;;
17741;SDS011;8993;51.822;-2.268;2022-08-03T02:16:47;12.40;;;2.08;;
17741;SDS011;8993;51.822;-2.268;2022-08-03T02:21:52;11.09;;;1.88;;
17741;SDS011;8993;51.822;-2.268;2022-08-03T02:26:56;11.42;;;1.67;;
17741;SDS011;8993;51.822;-2.268;2022-08-03T02:32:00;7.97;;;1.41;;
17741;SDS011;8993;51.822;-2.268;2022-08-03T02:37:06;8.94;;;1.59;;
17741;SDS011;8993;51.822;-2.268;2022-08-03T02:42:11;6.73;;;1.47;;
17741;SDS011;8993;51.822;-2.268;2022-08-03T02:47:16;9.44;;;1.54;;
17741;SDS011;8993;51.822;-2.268;2022-08-03T02:52:21;10.43;;;1.64;;
17741;SDS011;8993;51.822;-2.268;2022-08-03T02:57:25;8.73;;;1.62;;
17741;SDS011;8993;51.822;-2.268;2022-08-03T03:02:29;9.14;;;1.78;;
17741;SDS011;8993;51.822;-2.268;2022-08-03T03:07:33;9.34;;;1.73;;
17741;SDS011;8993;51.822;-2.268;2022-08-03T03:12:37;10.48;;;2.08;;
17741;SDS011;8993;51.822;-2.268;2022-08-03T03:17:42;10.35;;;1.99;;
17741;SDS011;8993;51.822;-2.268;2022-08-03T03:22:47;8.52;;;2.30;;
17741;SDS011;8993;51.822;-2.268;2022-08-03T03:27:50;11.43;;;2.74;;
17741;SDS011;8993;51.822;-2.268;2022-08-03T03:32:54;8.28;;;1.66;;
17741;SDS011;8993;51.822;-2.268;2022-08-03T03:37:58;6.93;;;1.27;;
17741;SDS011;8993;51.822;-2.268;2022-08-03T03:43:04;7.74;;;1.45;;
17741;SDS011;8993;51.822;-2.268;2022-08-03T03:48:07;7.53;;;1.47;;
17741;SDS011;8993;51.822;-2.268;2022-08-03T03:53:12;6.23;;;1.16;;
17741;SDS011;8993;51.822;-2.268;2022-08-03T03:58:15;4.68;;;0.98;;
17741;SDS011;8993;51.822;-2.268;2022-08-03T04:03:20;3.83;;;0.64;;
17741;SDS011;8993;51.822;-2.268;2022-08-03T04:08:24;3.31;;;0.59;;
17741;SDS011;8993;51.822;-2.268;2022-08-03T04:13:29;3.67;;;0.55;;
17741;SDS011;8993;51.822;-2.268;2022-08-03T04:18:33;2.94;;;0.66;;
17741;SDS011;8993;51.822;-2.268;2022-08-03T04:23:39;3.91;;;0.59;;
17741;SDS011;8993;51.822;-2.268;2022-08-03T04:28:42;3.58;;;0.94;;
17741;SDS011;8993;51.822;-2.268;2022-08-03T04:33:45;5.13;;;1.03;;
17741;SDS011;8993;51.822;-2.268;2022-08-03T04:38:53;7.00;;;1.43;;
17741;SDS011;8993;51.822;-2.268;2022-08-03T04:43:55;9.02;;;1.55;;
17741;SDS011;8993;51.822;-2.268;2022-08-03T04:48:58;5.18;;;1.26;;
17741;SDS011;8993;51.822;-2.268;2022-08-03T04:54:02;8.92;;;1.64;;
17741;SDS011;8993;51.822;-2.268;2022-08-03T04:59:07;6.58;;;1.72;;
17741;SDS011;8993;51.822;-2.268;2022-08-03T05:04:11;8.35;;;2.11;;
17741;SDS011;8993;51.822;-2.268;2022-08-03T05:09:16;10.03;;;2.32;;
17741;SDS011;8993;51.822;-2.268;2022-08-03T05:14:20;7.51;;;2.58;;
17741;SDS011;8993;51.822;-2.268;2022-08-03T05:19:24;7.16;;;2.83;;
17741;SDS011;8993;51.822;-2.268;2022-08-03T05:24:28;10.19;;;3.12;;
17741;SDS011;8993;51.822;-2.268;2022-08-03T05:29:33;10.13;;;2.61;;
17741;SDS011;8993;51.822;-2.268;2022-08-03T05:34:37;7.61;;;2.23;;
17741;SDS011;8993;51.822;-2.268;2022-08-03T05:39:41;8.07;;;2.06;;
17741;SDS011;8993;51.822;-2.268;2022-08-03T05:44:46;6.83;;;1.65;;
17741;SDS011;8993;51.822;-2.268;2022-08-03T05:49:50;4.62;;;1.46;;
17741;SDS011;8993;51.822;-2.268;2022-08-03T05:54:56;4.73;;;1.22;;
17741;SDS011;8993;51.822;-2.268;2022-08-03T05:59:59;4.38;;;1.13;;
17741;SDS011;8993;51.822;-2.268;2022-08-03T06:05:04;4.52;;;0.93;;
17741;SDS011;8993;51.822;-2.268;2022-08-03T06:10:08;3.22;;;0.91;;
17741;SDS011;8993;51.822;-2.268;2022-08-03T06:15:12;3.58;;;0.88;;
17741;SDS011;8993;51.822;-2.268;2022-08-03T06:20:17;2.97;;;0.83;;
17741;SDS011;8993;51.822;-2.268;2022-08-03T06:25:22;4.21;;;0.83;;
17741;SDS011;8993;51.822;-2.268;2022-08-03T06:30:26;2.75;;;0.86;;
17741;SDS011;8993;51.822;-2.268;2022-08-03T06:35:31;3.39;;;0.81;;
17741;SDS011;8993;51.822;-2.268;2022-08-03T06:40:35;4.45;;;0.87;;
17741;SDS011;8993;51.822;-2.268;2022-08-03T06:45:40;5.07;;;0.87;;
17741;SDS011;8993;51.822;-2.268;2022-08-03T06:50:44;4.12;;;0.81;;
17741;SDS011;8993;51.822;-2.268;2022-08-03T06:55:48;3.77;;;0.81;;
17741;SDS011;8993;51.822;-2.268;2022-08-03T07:00:52;5.92;;;0.92;;
17741;SDS011;8993;51.822;-2.268;2022-08-03T07:05:56;4.10;;;0.84;;
17741;SDS011;8993;51.822;-2.268;2022-08-03T07:11:01;4.38;;;0.75;;
17741;SDS011;8993;51.822;-2.268;2022-08-03T07:16:06;2.68;;;0.59;;
17741;SDS011;8993;51.822;-2.268;2022-08-03T07:21:10;3.29;;;0.72;;
17741;SDS011;8993;51.822;-2.268;2022-08-03T07:26:14;3.28;;;0.68;;
17741;SDS011;8993;51.822;-2.268;2022-08-03T07:31:18;2.06;;;0.74;;
17741;SDS011;8993;51.822;-2.268;2022-08-03T07:36:23;3.29;;;0.65;;
17741;SDS011;8993;51.822;-2.268;2022-08-03T07:41:28;2.97;;;0.66;;
17741;SDS011;8993;51.822;-2.268;2022-08-03T07:46:33;3.45;;;0.62;;
17741;SDS011;8993;51.822;-2.268;2022-08-03T07:51:37;6.75;;;1.71;;
17741;SDS011;8993;51.822;-2.268;2022-08-03T07:56:41;2.43;;;0.43;;
17741;SDS011;8993;51.822;-2.268;2022-08-03T08:01:45;2.76;;;0.52;;
17741;SDS011;8993;51.822;-2.268;2022-08-03T08:06:49;3.08;;;0.42;;
17741;SDS011;8993;51.822;-2.268;2022-08-03T08:11:54;2.85;;;0.47;;
17741;SDS011;8993;51.822;-2.268;2022-08-03T08:16:58;1.59;;;0.42;;
17741;SDS011;8993;51.822;-2.268;2022-08-03T08:22:02;2.27;;;0.41;;
17741;SDS011;8993;51.822;-2.268;2022-08-03T08:27:08;2.88;;;0.49;;
17741;SDS011;8993;51.822;-2.268;2022-08-03T08:32:12;2.47;;;0.43;;
17741;SDS011;8993;51.822;-2.268;2022-08-03T08:37:17;3.26;;;0.58;;
17741;SDS011;8993;51.822;-2.268;2022-08-03T08:42:23;2.79;;;0.63;;
17741;SDS011;8993;51.822;-2.268;2022-08-03T08:47:28;1.60;;;0.54;;
17741;SDS011;8993;51.822;-2.268;2022-08-03T08:52:31;9.69;;;0.78;;
17741;SDS011;8993;51.822;-2.268;2022-08-03T08:57:36;1.17;;;0.15;;
17741;SDS011;8993;51.822;-2.268;2022-08-03T09:02:40;1.61;;;0.12;;
17741;SDS011;8993;51.822;-2.268;2022-08-03T09:07:45;1.23;;;0.11;;
17741;SDS011;8993;51.822;-2.268;2022-08-03T09:12:49;0.75;;;0.12;;
17741;SDS011;8993;51.822;-2.268;2022-08-03T09:17:53;0.54;;;0.15;;
17741;SDS011;8993;51.822;-2.268;2022-08-03T09:22:58;0.87;;;0.16;;
17741;SDS011;8993;51.822;-2.268;2022-08-03T09:28:03;1.15;;;0.19;;
17741;SDS011;8993;51.822;-2.268;2022-08-03T09:33:06;1.84;;;0.15;;
17741;SDS011;8993;51.822;-2.268;2022-08-03T09:38:11;1.32;;;0.19;;
17741;SDS011;8993;51.822;-2.268;2022-08-03T09:43:14;2.54;;;0.35;;
17741;SDS011;8993;51.822;-2.268;2022-08-03T09:48:19;1.23;;;0.26;;
17741;SDS011;8993;51.822;-2.268;2022-08-03T09:53:22;0.48;;;0.19;;
17741;SDS011;8993;51.822;-2.268;2022-08-03T09:58:28;5.22;;;0.38;;
17741;SDS011;8993;51.822;-2.268;2022-08-03T10:03:32;5.13;;;0.55;;
17741;SDS011;8993;51.822;-2.268;2022-08-03T10:08:36;1.68;;;0.38;;
17741;SDS011;8993;51.822;-2.268;2022-08-03T10:13:42;1.82;;;0.44;;
17741;SDS011;8993;51.822;-2.268;2022-08-03T10:18:46;7.46;;;0.75;;
17741;SDS011;8993;51.822;-2.268;2022-08-03T10:23:51;3.64;;;0.53;;
17741;SDS011;8993;51.822;-2.268;2022-08-03T10:28:55;1.10;;;0.44;;
17741;SDS011;8993;51.822;-2.268;2022-08-03T10:33:59;2.45;;;0.59;;
17741;SDS011;8993;51.822;-2.268;2022-08-03T10:39:04;1.66;;;0.59;;
17741;SDS011;8993;51.822;-2.268;2022-08-03T10:44:09;2.91;;;0.90;;
17741;SDS011;8993;51.822;-2.268;2022-08-03T10:49:13;1.60;;;0.93;;
17741;SDS011;8993;51.822;-2.268;2022-08-03T10:54:48;2.72;;;1.06;;
17741;SDS011;8993;51.822;-2.268;2022-08-03T10:59:56;2.96;;;1.05;;
17741;SDS011;8993;51.822;-2.268;2022-08-03T11:04:25;5.01;;;1.28;;
17741;SDS011;8993;51.822;-2.268;2022-08-03T11:09:34;4.05;;;1.50;;
17741;SDS011;8993;51.822;-2.268;2022-08-03T11:14:44;3.39;;;1.38;;
17741;SDS011;8993;51.822;-2.268;2022-08-03T11:19:42;3.07;;;1.47;;
17741;SDS011;8993;51.822;-2.268;2022-08-03T11:24:58;3.49;;;1.45;;
17741;SDS011;8993;51.822;-2.268;2022-08-03T11:29:56;4.40;;;1.39;;
17741;SDS011;8993;51.822;-2.268;2022-08-03T11:35:05;5.92;;;1.66;;
17741;SDS011;8993;51.822;-2.268;2022-08-03T11:39:57;3.94;;;1.27;;
17741;SDS011;8993;51.822;-2.268;2022-08-03T11:45:01;4.18;;;1.20;;
17741;SDS011;8993;51.822;-2.268;2022-08-03T11:50:05;5.09;;;1.44;;
17741;SDS011;8993;51.822;-2.268;2022-08-03T11:55:10;4.71;;;1.21;;
17741;SDS011;8993;51.822;-2.268;2022-08-03T12:00:21;4.09;;;1.13;;
17741;SDS011;8993;51.822;-2.268;2022-08-03T12:05:18;6.09;;;1.31;;
17741;SDS011;8993;51.822;-2.268;2022-08-03T12:10:23;5.97;;;1.40;;
17741;SDS011;8993;51.822;-2.268;2022-08-03T12:15:28;5.69;;;1.46;;
17741;SDS011;8993;51.822;-2.268;2022-08-03T12:20:31;5.91;;;1.22;;
17741;SDS011;8993;51.822;-2.268;2022-08-03T12:25:36;5.71;;;1.29;;
17741;SDS011;8993;51.822;-2.268;2022-08-03T12:30:41;6.47;;;1.18;;
17741;SDS011;8993;51.822;-2.268;2022-08-03T12:35:46;6.48;;;1.29;;
17741;SDS011;8993;51.822;-2.268;2022-08-03T12:40:57;4.14;;;1.15;;
17741;SDS011;8993;51.822;-2.268;2022-08-03T12:46:09;5.78;;;1.21;;
17741;SDS011;8993;51.822;-2.268;2022-08-03T12:51:06;6.36;;;1.21;;
17741;SDS011;8993;51.822;-2.268;2022-08-03T12:56:03;4.63;;;1.05;;
17741;SDS011;8993;51.822;-2.268;2022-08-03T13:01:07;5.04;;;1.01;;
17741;SDS011;8993;51.822;-2.268;2022-08-03T13:06:11;4.63;;;1.04;;
17741;SDS011;8993;51.822;-2.268;2022-08-03T13:11:18;4.10;;;1.17;;
17741;SDS011;8993;51.822;-2.268;2022-08-03T13:16:21;7.24;;;0.95;;
17741;SDS011;8993;51.822;-2.268;2022-08-03T13:21:25;5.41;;;1.17;;
17741;SDS011;8993;51.822;-2.268;2022-08-03T13:26:29;5.19;;;1.06;;
17741;SDS011;8993;51.822;-2.268;2022-08-03T13:31:34;10.67;;;1.34;;
17741;SDS011;8993;51.822;-2.268;2022-08-03T13:36:38;5.82;;;1.04;;
17741;SDS011;8993;51.822;-2.268;2022-08-03T13:41:43;6.50;;;1.13;;
17741;SDS011;8993;51.822;-2.268;2022-08-03T13:46:48;6.00;;;1.11;;
17741;SDS011;8993;51.822;-2.268;2022-08-03T13:51:53;4.67;;;0.89;;
17741;SDS011;8993;51.822;-2.268;2022-08-03T13:56:58;4.07;;;0.80;;
17741;SDS011;8993;51.822;-2.268;2022-08-03T14:02:02;4.40;;;0.81;;
17741;SDS011;8993;51.822;-2.268;2022-08-03T14:07:07;2.84;;;0.73;;
17741;SDS011;8993;51.822;-2.268;2022-08-03T14:12:11;3.33;;;0.87;;
17741;SDS011;8993;51.822;-2.268;2022-08-03T14:17:16;3.69;;;0.79;;
17741;SDS011;8993;51.822;-2.268;2022-08-03T14:22:20;6.61;;;0.82;;
17741;SDS011;8993;51.822;-2.268;2022-08-03T14:27:25;4.04;;;0.76;;
17741;SDS011;8993;51.822;-2.268;2022-08-03T14:32:29;3.97;;;0.75;;
17741;SDS011;8993;51.822;-2.268;2022-08-03T14:37:33;4.82;;;0.88;;
17741;SDS011;8993;51.822;-2.268;2022-08-03T14:42:37;5.12;;;0.80;;
17741;SDS011;8993;51.822;-2.268;2022-08-03T14:47:42;4.92;;;0.81;;
17741;SDS011;8993;51.822;-2.268;2022-08-03T14:52:46;4.14;;;0.77;;
17741;SDS011;8993;51.822;-2.268;2022-08-03T14:57:51;6.16;;;0.90;;
17741;SDS011;8993;51.822;-2.268;2022-08-03T15:02:56;2.51;;;0.64;;
17741;SDS011;8993;51.822;-2.268;2022-08-03T15:08:01;4.49;;;0.83;;
17741;SDS011;8993;51.822;-2.268;2022-08-03T15:13:06;6.62;;;0.85;;
17741;SDS011;8993;51.822;-2.268;2022-08-03T15:18:10;3.84;;;0.82;;
17741;SDS011;8993;51.822;-2.268;2022-08-03T15:23:16;5.42;;;0.91;;
17741;SDS011;8993;51.822;-2.268;2022-08-03T15:28:19;4.42;;;0.77;;
17741;SDS011;8993;51.822;-2.268;2022-08-03T15:33:24;3.47;;;0.69;;
17741;SDS011;8993;51.822;-2.268;2022-08-03T15:38:30;3.14;;;0.79;;
17741;SDS011;8993;51.822;-2.268;2022-08-03T15:43:35;5.28;;;0.84;;
17741;SDS011;8993;51.822;-2.268;2022-08-03T15:48:40;6.20;;;0.94;;
17741;SDS011;8993;51.822;-2.268;2022-08-03T15:53:44;3.46;;;0.76;;
17741;SDS011;8993;51.822;-2.268;2022-08-03T15:58:48;6.15;;;0.79;;
17741;SDS011;8993;51.822;-2.268;2022-08-03T16:03:53;3.19;;;0.72;;
17741;SDS011;8993;51.822;-2.268;2022-08-03T16:08:57;3.86;;;0.80;;
17741;SDS011;8993;51.822;-2.268;2022-08-03T16:14:02;5.43;;;0.76;;
17741;SDS011;8993;51.822;-2.268;2022-08-03T16:19:06;4.14;;;0.78;;
17741;SDS011;8993;51.822;-2.268;2022-08-03T16:24:10;3.75;;;0.76;;
17741;SDS011;8993;51.822;-2.268;2022-08-03T16:29:14;3.56;;;0.74;;
17741;SDS011;8993;51.822;-2.268;2022-08-03T16:34:19;5.41;;;0.84;;
17741;SDS011;8993;51.822;-2.268;2022-08-03T16:39:23;3.83;;;0.97;;
17741;SDS011;8993;51.822;-2.268;2022-08-03T16:44:28;4.01;;;0.96;;
17741;SDS011;8993;51.822;-2.268;2022-08-03T16:49:35;5.16;;;1.06;;
17741;SDS011;8993;51.822;-2.268;2022-08-03T16:54:39;3.71;;;1.04;;
17741;SDS011;8993;51.822;-2.268;2022-08-03T16:59:45;3.47;;;1.10;;
17741;SDS011;8993;51.822;-2.268;2022-08-03T17:04:49;4.85;;;1.22;;
17741;SDS011;8993;51.822;-2.268;2022-08-03T17:09:53;3.78;;;0.93;;
17741;SDS011;8993;51.822;-2.268;2022-08-03T17:14:58;3.87;;;1.00;;
17741;SDS011;8993;51.822;-2.268;2022-08-03T17:20:04;5.44;;;0.96;;
17741;SDS011;8993;51.822;-2.268;2022-08-03T17:25:07;5.33;;;1.07;;
17741;SDS011;8993;51.822;-2.268;2022-08-03T17:30:11;3.08;;;0.83;;
17741;SDS011;8993;51.822;-2.268;2022-08-03T17:35:15;2.88;;;0.93;;
17741;SDS011;8993;51.822;-2.268;2022-08-03T17:40:19;2.76;;;0.81;;
17741;SDS011;8993;51.822;-2.268;2022-08-03T17:45:23;3.84;;;0.74;;
17741;SDS011;8993;51.822;-2.268;2022-08-03T17:50:32;3.94;;;0.66;;
17741;SDS011;8993;51.822;-2.268;2022-08-03T17:55:32;2.53;;;0.70;;
17741;SDS011;8993;51.822;-2.268;2022-08-03T18:00:37;2.79;;;0.73;;
17741;SDS011;8993;51.822;-2.268;2022-08-03T18:05:42;3.03;;;0.75;;
17741;SDS011;8993;51.822;-2.268;2022-08-03T18:16:50;3.83;;;0.95;;
17741;SDS011;8993;51.822;-2.268;2022-08-03T18:18:24;4.35;;;0.90;;
17741;SDS011;8993;51.822;-2.268;2022-08-03T18:23:29;4.79;;;1.05;;
17741;SDS011;8993;51.822;-2.268;2022-08-03T18:28:34;4.69;;;1.03;;
17741;SDS011;8993;51.822;-2.268;2022-08-03T18:33:40;4.55;;;1.36;;
17741;SDS011;8993;51.822;-2.268;2022-08-03T18:38:44;4.97;;;1.36;;
17741;SDS011;8993;51.822;-2.268;2022-08-03T18:43:50;7.11;;;1.45;;
17741;SDS011;8993;51.822;-2.268;2022-08-03T18:48:56;5.11;;;1.19;;
17741;SDS011;8993;51.822;-2.268;2022-08-03T18:53:59;5.89;;;1.18;;
17741;SDS011;8993;51.822;-2.268;2022-08-03T18:59:03;6.56;;;1.51;;
17741;SDS011;8993;51.822;-2.268;2022-08-03T19:04:08;5.35;;;1.03;;
17741;SDS011;8993;51.822;-2.268;2022-08-03T19:09:12;4.54;;;1.10;;
17741;SDS011;8993;51.822;-2.268;2022-08-03T19:14:16;6.03;;;1.13;;
17741;SDS011;8993;51.822;-2.268;2022-08-03T19:19:20;5.77;;;1.24;;
17741;SDS011;8993;51.822;-2.268;2022-08-03T19:29:33;4.95;;;1.09;;
17741;SDS011;8993;51.822;-2.268;2022-08-03T19:34:40;6.01;;;1.28;;
17741;SDS011;8993;51.822;-2.268;2022-08-03T19:39:46;6.58;;;1.45;;
17741;SDS011;8993;51.822;-2.268;2022-08-03T19:55:09;8.86;;;2.02;;
17741;SDS011;8993;51.822;-2.268;2022-08-03T20:00:12;5.92;;;1.98;;
17741;SDS011;8993;51.822;-2.268;2022-08-03T20:10:23;6.84;;;2.15;;
17741;SDS011;8993;51.822;-2.268;2022-08-03T20:15:27;7.43;;;1.94;;
17741;SDS011;8993;51.822;-2.268;2022-08-03T20:20:35;5.85;;;1.65;;
17741;SDS011;8993;51.822;-2.268;2022-08-03T20:25:37;7.38;;;1.75;;
17741;SDS011;8993;51.822;-2.268;2022-08-03T20:30:41;5.97;;;1.58;;
17741;SDS011;8993;51.822;-2.268;2022-08-03T20:35:47;6.60;;;1.66;;
17741;SDS011;8993;51.822;-2.268;2022-08-03T20:40:51;4.51;;;1.41;;
17741;SDS011;8993;51.822;-2.268;2022-08-03T20:45:55;7.18;;;1.61;;
17741;SDS011;8993;51.822;-2.268;2022-08-03T20:51:00;8.14;;;1.45;;
17741;SDS011;8993;51.822;-2.268;2022-08-03T20:56:03;8.51;;;1.39;;
17741;SDS011;8993;51.822;-2.268;2022-08-03T21:01:08;7.28;;;1.49;;
17741;SDS011;8993;51.822;-2.268;2022-08-03T21:06:15;6.91;;;1.52;;
17741;SDS011;8993;51.822;-2.268;2022-08-03T21:11:17;6.21;;;1.36;;
17741;SDS011;8993;51.822;-2.268;2022-08-03T21:16:22;8.26;;;1.56;;
17741;SDS011;8993;51.822;-2.268;2022-08-03T21:21:25;7.83;;;1.62;;
17741;SDS011;8993;51.822;-2.268;2022-08-03T21:26:32;7.30;;;1.60;;
17741;SDS011;8993;51.822;-2.268;2022-08-03T21:31:37;8.70;;;1.68;;
17741;SDS011;8993;51.822;-2.268;2022-08-03T21:36:41;8.11;;;1.74;;
17741;SDS011;8993;51.822;-2.268;2022-08-03T21:41:45;9.04;;;2.37;;
17741;SDS011;8993;51.822;-2.268;2022-08-03T21:46:50;7.45;;;1.86;;
17741;SDS011;8993;51.822;-2.268;2022-08-03T21:51:54;11.20;;;1.99;;
17741;SDS011;8993;51.822;-2.268;2022-08-03T21:56:59;10.27;;;1.83;;
17741;SDS011;8993;51.822;-2.268;2022-08-03T22:02:03;10.99;;;1.95;;
17741;SDS011;8993;51.822;-2.268;2022-08-03T22:07:07;9.78;;;1.71;;
17741;SDS011;8993;51.822;-2.268;2022-08-03T22:12:12;10.38;;;2.25;;
17741;SDS011;8993;51.822;-2.268;2022-08-03T22:17:17;8.01;;;1.92;;
17741;SDS011;8993;51.822;-2.268;2022-08-03T22:22:20;11.06;;;1.91;;
17741;SDS011;8993;51.822;-2.268;2022-08-03T22:27:24;6.43;;;1.72;;
17741;SDS011;8993;51.822;-2.268;2022-08-03T22:32:29;7.71;;;1.73;;
17741;SDS011;8993;51.822;-2.268;2022-08-03T22:37:34;10.35;;;2.22;;
17741;SDS011;8993;51.822;-2.268;2022-08-03T22:42:44;11.28;;;2.17;;
17741;SDS011;8993;51.822;-2.268;2022-08-03T22:47:47;9.34;;;2.03;;
17741;SDS011;8993;51.822;-2.268;2022-08-03T22:52:51;9.54;;;1.99;;
17741;SDS011;8993;51.822;-2.268;2022-08-03T22:57:56;7.60;;;1.88;;
17741;SDS011;8993;51.822;-2.268;2022-08-03T23:03:00;10.38;;;2.22;;
17741;SDS011;8993;51.822;-2.268;2022-08-03T23:08:04;11.54;;;2.31;;
17741;SDS011;8993;51.822;-2.268;2022-08-03T23:13:08;7.99;;;1.85;;
17741;SDS011;8993;51.822;-2.268;2022-08-03T23:18:13;7.32;;;1.68;;
17741;SDS011;8993;51.822;-2.268;2022-08-03T23:23:18;8.51;;;1.96;;
17741;SDS011;8993;51.822;-2.268;2022-08-03T23:28:22;11.58;;;2.24;;
17741;SDS011;8993;51.822;-2.268;2022-08-03T23:33:28;10.42;;;2.27;;
17741;SDS011;8993;51.822;-2.268;2022-08-03T23:38:33;8.19;;;2.15;;
17741;SDS011;8993;51.822;-2.268;2022-08-03T23:43:37;11.45;;;2.63;;
17741;SDS011;8993;51.822;-2.268;2022-08-03T23:48:41;7.93;;;2.25;;
17741;SDS011;8993;51.822;-2.268;2022-08-03T23:53:47;11.74;;;2.37;;
17741;SDS011;8993;51.822;-2.268;2022-08-03T23:58:54;9.72;;;2.09;;
